Time;durP1;ratioP1;P1;durP2;ratioP2;P2;SDS_P1;SDS_P2;PMS_P1;PMS_P2;Temp;Humidity;BMP_temperature;BMP_pressure;BME280_temperature;BME280_humidity;BME280_pressure;Samples;Min_cycle;Max_cycle;Signal;HPM_P1;HPM_P2
2021/10/26 00:00:12;;;;;;;11.73;10.10;;;11.70;99.90;;;;;;5073260;28;20450;-60
2021/10/26 00:02:40;;;;;;;11.50;10.30;;;11.70;99.90;;;;;;5073235;28;20449;-60
2021/10/26 00:05:09;;;;;;;14.93;12.80;;;11.70;99.90;;;;;;5072957;28;20455;-60
2021/10/26 00:07:37;;;;;;;14.43;12.40;;;11.70;99.90;;;;;;5072878;28;20463;-60
2021/10/26 00:10:05;;;;;;;15.57;11.60;;;11.70;99.90;;;;;;5072969;28;20452;-60
2021/10/26 00:12:32;;;;;;;17.73;13.70;;;11.80;99.90;;;;;;5072893;28;20444;-60
2021/10/26 00:14:59;;;;;;;15.03;13.53;;;11.80;99.90;;;;;;5073318;28;20457;-60
2021/10/26 00:17:27;;;;;;;15.67;12.87;;;11.80;99.90;;;;;;5073184;28;20465;-59
2021/10/26 00:19:54;;;;;;;13.60;12.20;;;11.80;99.90;;;;;;5073353;28;20460;-60
2021/10/26 00:22:21;;;;;;;17.17;13.37;;;11.80;99.90;;;;;;5073286;28;20461;-59
2021/10/26 00:24:49;;;;;;;17.77;13.47;;;11.80;99.90;;;;;;5075761;28;20451;-59
2021/10/26 00:27:16;;;;;;;16.00;14.03;;;11.80;99.90;;;;;;5077132;28;20466;-59
2021/10/26 00:29:43;;;;;;;17.43;15.40;;;11.80;99.90;;;;;;5076746;28;20945;-59
2021/10/26 00:32:10;;;;;;;16.10;13.83;;;11.80;99.90;;;;;;5076728;28;20446;-60
2021/10/26 00:34:37;;;;;;;16.30;14.63;;;11.80;99.90;;;;;;5076602;28;21035;-60
2021/10/26 00:37:05;;;;;;;14.77;13.37;;;11.80;99.90;;;;;;5076761;28;20799;-60
2021/10/26 00:39:32;;;;;;;16.70;15.07;;;11.90;99.90;;;;;;5077016;28;20429;-59
2021/10/26 00:42:00;;;;;;;17.67;15.80;;;11.80;99.90;;;;;;5076584;28;20438;-59
2021/10/26 00:44:29;;;;;;;16.60;14.93;;;11.90;99.90;;;;;;5076839;28;20445;-59
2021/10/26 00:46:56;;;;;;;18.13;16.20;;;11.90;99.90;;;;;;5076716;28;20503;-59
2021/10/26 00:49:23;;;;;;;19.87;16.70;;;11.90;99.90;;;;;;5076792;28;20473;-59
2021/10/26 00:51:51;;;;;;;20.07;17.17;;;11.90;99.90;;;;;;5076361;28;20453;-60
2021/10/26 00:54:18;;;;;;;21.50;17.03;;;11.90;99.90;;;;;;5076693;28;21005;-60
2021/10/26 00:56:46;;;;;;;19.83;16.90;;;11.90;99.90;;;;;;5076634;28;20449;-60
2021/10/26 00:59:15;;;;;;;22.00;18.70;;;11.90;99.90;;;;;;5076445;28;20476;-60
2021/10/26 01:01:43;;;;;;;20.97;17.50;;;11.90;99.90;;;;;;5076176;28;20968;-60
2021/10/26 01:04:10;;;;;;;19.83;17.30;;;11.90;99.90;;;;;;5076498;28;20525;-60
2021/10/26 01:06:37;;;;;;;25.80;18.63;;;11.90;99.90;;;;;;5076086;28;20451;-60
2021/10/26 01:09:05;;;;;;;21.90;18.20;;;11.90;99.90;;;;;;5075900;28;20857;-60
2021/10/26 01:11:33;;;;;;;21.97;19.13;;;11.90;99.90;;;;;;5075952;28;20442;-60
2021/10/26 01:14:01;;;;;;;23.23;19.10;;;11.90;99.90;;;;;;5075907;28;20993;-60
2021/10/26 01:16:30;;;;;;;24.20;20.47;;;11.90;99.90;;;;;;5076268;28;20450;-60
2021/10/26 01:18:57;;;;;;;22.50;18.57;;;11.90;99.90;;;;;;5075806;28;20534;-60
2021/10/26 01:21:25;;;;;;;20.03;17.70;;;11.90;99.90;;;;;;5076138;28;20444;-60
2021/10/26 01:23:52;;;;;;;25.07;19.90;;;11.90;99.90;;;;;;5076098;28;20460;-60
2021/10/26 01:26:19;;;;;;;24.97;18.93;;;11.90;99.90;;;;;;5076094;28;20438;-60
2021/10/26 01:28:46;;;;;;;24.40;20.33;;;11.90;99.90;;;;;;5075640;28;20966;-60
2021/10/26 01:31:14;;;;;;;22.83;18.53;;;11.90;99.90;;;;;;5075950;28;20827;-60
2021/10/26 01:33:42;;;;;;;26.50;20.23;;;11.90;99.90;;;;;;5075621;28;20504;-60
2021/10/26 01:36:09;;;;;;;25.00;19.50;;;11.90;99.90;;;;;;5076080;28;20449;-58
2021/10/26 01:38:37;;;;;;;26.07;20.03;;;11.90;99.90;;;;;;5075455;28;20477;-58
2021/10/26 01:41:05;;;;;;;25.73;21.10;;;11.90;99.90;;;;;;5075583;28;20451;-58
2021/10/26 01:43:32;;;;;;;30.20;20.43;;;11.80;99.90;;;;;;5075783;28;20445;-58
2021/10/26 01:45:59;;;;;;;23.77;20.70;;;11.80;99.90;;;;;;5075813;28;20453;-59
2021/10/26 01:48:27;;;;;;;27.37;21.00;;;11.90;99.90;;;;;;5075218;28;20497;-58
2021/10/26 01:50:54;;;;;;;23.53;19.87;;;11.80;99.90;;;;;;5075679;28;20806;-58
2021/10/26 01:53:22;;;;;;;24.40;19.93;;;11.90;99.90;;;;;;5075836;28;20482;-59
2021/10/26 01:55:50;;;;;;;23.40;20.30;;;11.90;99.90;;;;;;5076458;28;20540;-58
2021/10/26 01:58:17;;;;;;;23.27;19.47;;;11.90;99.90;;;;;;5075518;28;20465;-59
2021/10/26 02:00:44;;;;;;;24.83;20.67;;;11.90;99.90;;;;;;5075883;28;20451;-59
2021/10/26 02:03:12;;;;;;;27.27;20.00;;;11.90;99.90;;;;;;5075756;28;20449;-59
2021/10/26 02:05:39;;;;;;;26.10;20.27;;;11.90;99.90;;;;;;5075593;28;20450;-59
2021/10/26 02:08:06;;;;;;;24.90;20.53;;;11.80;99.90;;;;;;5075481;28;20469;-59
2021/10/26 02:10:33;;;;;;;25.50;19.83;;;11.90;99.90;;;;;;5075427;28;20817;-58
2021/10/26 02:13:01;;;;;;;23.33;19.70;;;11.90;99.90;;;;;;5075211;28;20464;-59
2021/10/26 02:15:28;;;;;;;24.83;20.83;;;11.90;99.90;;;;;;5074941;28;20449;-56
2021/10/26 02:17:56;;;;;;;28.33;23.20;;;11.90;99.90;;;;;;5074730;28;20468;-58
2021/10/26 02:20:23;;;;;;;27.67;21.67;;;11.90;99.90;;;;;;5075167;28;20503;-58
2021/10/26 02:22:50;;;;;;;29.23;22.30;;;11.90;99.90;;;;;;5075336;28;20435;-56
2021/10/26 02:25:17;;;;;;;28.17;22.60;;;11.90;99.90;;;;;;5075357;28;20442;-57
2021/10/26 02:27:45;;;;;;;28.30;22.50;;;11.90;99.90;;;;;;5075090;28;20964;-57
2021/10/26 02:30:13;;;;;;;29.77;22.40;;;11.80;99.90;;;;;;5074733;28;20936;-58
2021/10/26 02:32:40;;;;;;;32.83;23.87;;;11.80;99.90;;;;;;5075116;28;20450;-58
2021/10/26 02:35:08;;;;;;;28.57;21.97;;;11.80;99.90;;;;;;5075385;28;20485;-58
2021/10/26 02:37:35;;;;;;;32.17;23.80;;;11.80;99.90;;;;;;5098380;22;20485;-58
2021/10/26 02:40:02;;;;;;;29.00;24.10;;;11.80;99.90;;;;;;5074937;28;20444;-59
2021/10/26 02:42:29;;;;;;;32.40;24.73;;;11.80;99.90;;;;;;5074735;28;20449;-60
2021/10/26 02:44:56;;;;;;;32.77;24.33;;;11.80;99.90;;;;;;5075165;28;20952;-59
2021/10/26 02:47:25;;;;;;;31.30;26.20;;;11.80;99.90;;;;;;5073456;28;20448;-60
2021/10/26 02:49:52;;;;;;;35.30;25.60;;;11.70;99.90;;;;;;5074693;28;20445;-58
2021/10/26 02:52:19;;;;;;;38.07;27.97;;;11.60;99.90;;;;;;5074436;28;20454;-59
2021/10/26 02:54:46;;;;;;;35.87;27.20;;;11.60;99.90;;;;;;5074482;28;20824;-59
2021/10/26 02:57:14;;;;;;;36.53;26.80;;;11.60;99.90;;;;;;5074470;28;20815;-60
2021/10/26 02:59:41;;;;;;;43.20;27.60;;;11.60;99.90;;;;;;5074457;28;20487;-60
2021/10/26 03:02:08;;;;;;;38.80;28.47;;;11.50;99.90;;;;;;5074467;28;20444;-59
2021/10/26 03:04:36;;;;;;;40.33;29.57;;;11.50;99.90;;;;;;5074448;28;20866;-58
2021/10/26 03:07:04;;;;;;;38.50;26.77;;;11.50;99.90;;;;;;5074176;28;20447;-59
2021/10/26 03:09:31;;;;;;;37.43;27.77;;;11.50;99.90;;;;;;5074040;28;20483;-58
2021/10/26 03:11:58;;;;;;;41.83;28.70;;;11.50;99.90;;;;;;5073741;28;20450;-58
2021/10/26 03:14:25;;;;;;;38.87;26.10;;;11.50;99.90;;;;;;5073516;28;20477;-58
2021/10/26 03:16:52;;;;;;;34.70;25.07;;;11.50;99.90;;;;;;5073842;28;20446;-58
2021/10/26 03:19:19;;;;;;;33.27;25.50;;;11.50;99.90;;;;;;5073838;28;20835;-58
2021/10/26 03:21:48;;;;;;;30.27;23.40;;;11.50;99.90;;;;;;5073513;28;20441;-58
2021/10/26 03:24:15;;;;;;;30.50;24.20;;;11.60;99.90;;;;;;5073454;28;20440;-58
2021/10/26 03:26:42;;;;;;;36.53;25.30;;;11.60;99.90;;;;;;5073521;28;20944;-59
2021/10/26 03:29:09;;;;;;;28.33;22.13;;;11.60;99.90;;;;;;5073638;28;20473;-59
2021/10/26 03:31:36;;;;;;;29.50;23.00;;;11.60;99.90;;;;;;5073803;28;20449;-60
2021/10/26 03:34:04;;;;;;;29.20;23.10;;;11.60;99.90;;;;;;5073568;28;20489;-59
2021/10/26 03:36:33;;;;;;;28.47;22.63;;;11.60;99.90;;;;;;5073917;28;20472;-59
2021/10/26 03:39:01;;;;;;;24.17;20.87;;;11.60;99.90;;;;;;5073762;28;20547;-59
2021/10/26 03:41:28;;;;;;;30.60;22.97;;;11.60;99.90;;;;;;5073555;28;20967;-59
2021/10/26 03:43:55;;;;;;;27.90;19.90;;;11.60;99.90;;;;;;5073426;28;20450;-58
2021/10/26 03:46:22;;;;;;;26.50;20.00;;;11.60;99.90;;;;;;5073753;28;20445;-58
2021/10/26 03:48:49;;;;;;;23.13;18.97;;;11.70;99.90;;;;;;5073154;28;20474;-58
2021/10/26 03:51:16;;;;;;;27.97;20.80;;;11.70;99.90;;;;;;5073567;28;20443;-58
2021/10/26 03:53:43;;;;;;;26.50;19.23;;;11.60;99.90;;;;;;5073315;28;20472;-58
2021/10/26 03:56:12;;;;;;;25.40;19.70;;;11.70;99.90;;;;;;5073584;28;20468;-58
2021/10/26 03:58:41;;;;;;;23.30;19.43;;;11.70;99.90;;;;;;5072910;28;20473;-58
2021/10/26 04:01:09;;;;;;;24.67;17.87;;;11.70;99.90;;;;;;5073140;28;20937;-59
2021/10/26 04:03:36;;;;;;;24.13;18.17;;;11.70;99.90;;;;;;5073219;28;20454;-58
2021/10/26 04:08:54;;;;;;;22.87;17.33;;;11.70;99.90;;;;;;5165533;27;20545;-59
2021/10/26 04:11:22;;;;;;;27.87;19.90;;;11.70;99.90;;;;;;5173561;27;20433;-59
2021/10/26 04:13:50;;;;;;;24.00;18.20;;;11.70;99.90;;;;;;5172870;27;20445;-59
2021/10/26 04:16:17;;;;;;;22.70;17.87;;;11.60;99.90;;;;;;5172935;27;21085;-58
2021/10/26 04:18:45;;;;;;;21.60;16.93;;;11.60;99.90;;;;;;5173194;27;20469;-59
2021/10/26 04:21:12;;;;;;;23.37;17.73;;;11.70;99.90;;;;;;5173119;27;20446;-59
2021/10/26 04:23:39;;;;;;;23.10;18.37;;;11.70;99.90;;;;;;5173157;27;20442;-60
2021/10/26 04:26:08;;;;;;;23.50;18.23;;;11.70;99.90;;;;;;5172967;27;20805;-60
2021/10/26 04:28:36;;;;;;;23.83;17.97;;;11.70;99.90;;;;;;5172712;27;20869;-59
2021/10/26 04:31:05;;;;;;;22.40;17.17;;;11.70;99.90;;;;;;5172660;27;20461;-60
2021/10/26 04:33:33;;;;;;;22.40;16.47;;;11.70;99.90;;;;;;5172771;27;20972;-60
2021/10/26 04:36:00;;;;;;;20.57;16.80;;;11.70;99.90;;;;;;5173117;27;20437;-60
2021/10/26 04:38:27;;;;;;;23.17;15.30;;;11.70;99.90;;;;;;5173831;27;20843;-59
2021/10/26 04:40:57;;;;;;;20.07;16.53;;;11.70;99.90;;;;;;5175436;27;20438;-59
2021/10/26 04:43:26;;;;;;;19.20;16.27;;;11.70;99.90;;;;;;5173817;27;20441;-59
2021/10/26 04:45:53;;;;;;;18.57;15.20;;;11.70;99.90;;;;;;5173918;27;20452;-59
2021/10/26 04:48:22;;;;;;;20.10;16.93;;;11.70;99.90;;;;;;5173400;27;20482;-58
2021/10/26 04:50:49;;;;;;;18.57;14.77;;;11.70;99.90;;;;;;5172918;27;20476;-60
2021/10/26 04:53:17;;;;;;;19.60;16.00;;;11.70;99.90;;;;;;5172477;27;20522;-60
2021/10/26 04:55:44;;;;;;;19.27;15.73;;;11.70;99.90;;;;;;5172047;27;20927;-60
2021/10/26 04:58:11;;;;;;;22.53;16.50;;;11.70;99.90;;;;;;5172275;27;20511;-60
2021/10/26 05:00:40;;;;;;;16.90;14.30;;;11.70;99.90;;;;;;5171796;27;20450;-59
2021/10/26 05:03:07;;;;;;;17.20;14.60;;;11.70;99.90;;;;;;5171869;27;20930;-60
2021/10/26 05:05:35;;;;;;;19.70;14.90;;;11.60;99.90;;;;;;5171851;27;20438;-60
2021/10/26 05:08:02;;;;;;;16.13;13.60;;;11.70;99.90;;;;;;5171851;27;20489;-59
2021/10/26 05:10:29;;;;;;;18.20;14.37;;;11.70;99.90;;;;;;5172141;27;20441;-59
2021/10/26 05:12:56;;;;;;;17.23;13.20;;;11.70;99.90;;;;;;5171971;27;20459;-59
2021/10/26 05:15:23;;;;;;;14.83;12.70;;;11.70;99.90;;;;;;5171940;27;20453;-59
2021/10/26 05:17:52;;;;;;;13.73;11.90;;;11.70;99.90;;;;;;5171281;27;20803;-59
2021/10/26 05:20:21;;;;;;;14.93;12.33;;;11.70;99.90;;;;;;5157173;27;20443;-59
2021/10/26 05:22:51;;;;;;;16.10;12.93;;;11.70;99.90;;;;;;5157700;27;20450;-60
2021/10/26 05:25:18;;;;;;;12.93;10.83;;;11.70;99.90;;;;;;5157471;27;20458;-60
2021/10/26 05:27:46;;;;;;;17.17;12.00;;;11.70;99.90;;;;;;5157342;27;20482;-59
2021/10/26 05:30:14;;;;;;;15.80;12.30;;;11.70;99.90;;;;;;5158014;27;20446;-59
2021/10/26 05:32:42;;;;;;;18.00;12.40;;;11.70;99.90;;;;;;5157636;27;20953;-59
2021/10/26 05:35:11;;;;;;;17.10;12.70;;;11.80;99.90;;;;;;5158451;27;20491;-60
2021/10/26 05:37:38;;;;;;;16.30;12.83;;;11.80;99.90;;;;;;5157585;27;20454;-60
2021/10/26 05:40:06;;;;;;;17.47;12.90;;;11.70;99.90;;;;;;5157616;27;20474;-60
2021/10/26 05:42:34;;;;;;;15.70;13.10;;;11.80;99.90;;;;;;5157452;27;20457;-60
2021/10/26 05:45:01;;;;;;;17.10;14.20;;;11.80;99.90;;;;;;5157698;27;20450;-59
2021/10/26 05:47:28;;;;;;;18.63;13.77;;;11.80;99.90;;;;;;5157199;27;20478;-60
2021/10/26 05:49:55;;;;;;;18.63;15.00;;;11.80;99.90;;;;;;5161143;27;20446;-60
2021/10/26 05:52:24;;;;;;;18.30;13.60;;;11.90;99.90;;;;;;5160774;27;20431;-60
2021/10/26 05:54:51;;;;;;;19.07;14.43;;;11.90;99.90;;;;;;5157650;27;20451;-59
2021/10/26 05:57:18;;;;;;;22.87;15.97;;;11.90;99.90;;;;;;5157871;27;20474;-60
2021/10/26 05:59:45;;;;;;;20.53;15.50;;;11.90;99.90;;;;;;5157244;27;20445;-59
2021/10/26 06:02:12;;;;;;;23.30;16.57;;;11.90;99.90;;;;;;5157057;27;20443;-60
2021/10/26 06:04:40;;;;;;;19.90;17.30;;;11.90;99.90;;;;;;5156924;27;20442;-58
2021/10/26 06:07:07;;;;;;;23.80;16.97;;;11.80;99.90;;;;;;5156566;27;20454;-60
2021/10/26 06:09:35;;;;;;;21.00;17.73;;;11.90;99.90;;;;;;5156872;27;20462;-59
2021/10/26 06:12:05;;;;;;;26.43;19.50;;;11.80;99.90;;;;;;5156431;27;20468;-60
2021/10/26 06:14:32;;;;;;;23.97;18.03;;;11.80;99.90;;;;;;5157017;27;20446;-60
2021/10/26 06:17:01;;;;;;;23.07;18.00;;;11.80;99.90;;;;;;5156340;27;20446;-60
2021/10/26 06:19:29;;;;;;;22.53;18.40;;;11.80;99.90;;;;;;5156521;27;20488;-59
2021/10/26 06:21:56;;;;;;;23.20;17.63;;;11.80;99.90;;;;;;5155950;27;20454;-59
2021/10/26 06:24:23;;;;;;;22.50;17.67;;;11.80;99.90;;;;;;5156959;27;20447;-59
2021/10/26 06:26:52;;;;;;;30.10;20.80;;;11.80;99.90;;;;;;5156612;27;20454;-59
2021/10/26 06:29:19;;;;;;;22.57;18.37;;;11.80;99.90;;;;;;5156770;27;20486;-59
2021/10/26 06:31:46;;;;;;;23.40;17.93;;;11.90;99.90;;;;;;5155754;27;20533;-59
2021/10/26 06:34:13;;;;;;;22.23;19.27;;;11.80;99.90;;;;;;5156294;27;20847;-59
2021/10/26 06:36:41;;;;;;;21.13;17.20;;;11.80;99.90;;;;;;5156127;27;20435;-59
2021/10/26 06:39:08;;;;;;;22.60;18.30;;;11.90;99.90;;;;;;5156057;27;20472;-59
2021/10/26 06:41:35;;;;;;;21.87;18.10;;;11.90;99.90;;;;;;5156288;27;20451;-59
2021/10/26 06:44:04;;;;;;;23.73;18.60;;;11.90;99.90;;;;;;5156102;27;20436;-59
2021/10/26 06:46:31;;;;;;;27.23;19.90;;;11.90;99.90;;;;;;5155971;27;20447;-59
2021/10/26 06:48:59;;;;;;;20.60;17.17;;;11.90;99.90;;;;;;5156385;27;20486;-58
2021/10/26 06:51:26;;;;;;;27.43;20.00;;;11.90;99.90;;;;;;5156089;27;20443;-59
2021/10/26 06:53:53;;;;;;;28.37;17.77;;;12.00;99.90;;;;;;5156040;27;20439;-60
2021/10/26 06:56:21;;;;;;;23.90;18.60;;;12.00;99.90;;;;;;5155921;27;20464;-59
2021/10/26 06:58:48;;;;;;;24.83;18.23;;;12.00;99.90;;;;;;5156024;27;20562;-59
2021/10/26 07:01:17;;;;;;;22.60;17.97;;;12.00;99.90;;;;;;5156076;27;20826;-61
2021/10/26 07:03:44;;;;;;;22.07;18.50;;;12.10;99.90;;;;;;5156158;27;20810;-59
2021/10/26 07:06:11;;;;;;;19.80;17.00;;;12.10;99.90;;;;;;5156729;27;20813;-59
2021/10/26 07:08:39;;;;;;;21.20;16.90;;;12.20;99.90;;;;;;5155468;27;20510;-60
2021/10/26 07:11:06;;;;;;;20.07;15.70;;;12.20;99.90;;;;;;5156365;27;20512;-59
2021/10/26 07:13:38;;;;;;;21.00;17.07;;;12.30;99.90;;;;;;5155476;27;20803;-58
2021/10/26 07:16:05;;;;;;;22.97;19.10;;;12.40;99.90;;;;;;5155976;27;20463;-59
2021/10/26 07:18:34;;;;;;;21.30;16.93;;;12.40;99.90;;;;;;5155412;27;20451;-60
2021/10/26 07:21:01;;;;;;;21.43;16.90;;;12.50;99.90;;;;;;5155320;27;20811;-59
2021/10/26 07:23:28;;;;;;;20.50;17.73;;;12.50;99.90;;;;;;5155706;27;20446;-60
2021/10/26 07:25:55;;;;;;;22.13;17.67;;;12.50;99.90;;;;;;5155417;27;20442;-59
2021/10/26 07:28:23;;;;;;;22.13;16.33;;;12.50;99.90;;;;;;5155318;27;20479;-59
2021/10/26 07:30:50;;;;;;;20.33;17.13;;;12.40;99.90;;;;;;5155022;27;20851;-61
2021/10/26 07:33:25;;;;;;;23.37;18.30;;;12.40;99.90;;;;;;5154822;27;20454;-59
2021/10/26 07:35:55;;;;;;;21.80;18.43;;;12.30;99.90;;;;;;5154897;27;20423;-58
2021/10/26 07:38:29;;;;;;;26.53;18.90;;;12.30;99.90;;;;;;5154990;27;20466;-59
2021/10/26 07:40:58;;;;;;;28.00;18.47;;;12.30;99.90;;;;;;5154798;27;20458;-58
2021/10/26 07:43:25;;;;;;;22.70;18.47;;;12.20;99.90;;;;;;5155359;27;20450;-59
2021/10/26 07:45:53;;;;;;;24.20;19.80;;;12.20;99.90;;;;;;5155084;27;20439;-60
2021/10/26 07:48:20;;;;;;;24.60;20.23;;;12.20;99.90;;;;;;5154938;27;20486;-59
2021/10/26 07:50:47;;;;;;;22.17;18.87;;;12.20;99.90;;;;;;5154926;27;20991;-60
2021/10/26 07:53:16;;;;;;;24.17;18.93;;;12.30;99.90;;;;;;5155276;27;20445;-59
2021/10/26 07:55:46;;;;;;;21.90;18.33;;;12.40;99.90;;;;;;5155102;27;20443;-61
2021/10/26 07:58:13;;;;;;;29.27;20.80;;;12.50;99.90;;;;;;5154856;27;20495;-60
2021/10/26 08:00:40;;;;;;;27.60;19.40;;;12.60;99.90;;;;;;5155175;27;20812;-60
2021/10/26 08:03:07;;;;;;;21.37;18.73;;;12.70;99.90;;;;;;5155274;27;20439;-59
2021/10/26 08:05:34;;;;;;;22.10;18.60;;;12.70;99.90;;;;;;5155182;27;20444;-60
2021/10/26 08:08:01;;;;;;;19.03;17.03;;;12.80;99.90;;;;;;5155757;27;21017;-61
2021/10/26 08:10:30;;;;;;;23.60;19.30;;;12.80;99.90;;;;;;5155108;27;20435;-59
2021/10/26 08:12:57;;;;;;;22.30;19.47;;;12.80;99.90;;;;;;5155729;27;20443;-59
2021/10/26 08:15:24;;;;;;;22.87;19.43;;;12.80;99.90;;;;;;5155065;27;20439;-62
2021/10/26 08:17:51;;;;;;;25.93;19.47;;;12.90;99.90;;;;;;5159042;27;20456;-61
2021/10/26 08:20:18;;;;;;;20.60;18.40;;;13.00;99.90;;;;;;5157268;27;20831;-60
2021/10/26 08:22:45;;;;;;;21.80;18.50;;;13.00;99.90;;;;;;5155385;27;20435;-60
2021/10/26 08:25:19;;;;;;;22.90;18.13;;;13.10;99.90;;;;;;5155477;27;20447;-58
2021/10/26 08:27:47;;;;;;;21.17;16.67;;;13.20;99.90;;;;;;5155801;27;20963;-60
2021/10/26 08:30:17;;;;;;;21.00;18.23;;;13.30;99.90;;;;;;5155521;27;20443;-60
2021/10/26 08:32:57;;;;;;;19.70;17.70;;;13.40;99.90;;;;;;5155270;27;20447;-60
2021/10/26 08:35:26;;;;;;;19.13;17.13;;;13.50;99.90;;;;;;5154516;27;20427;-60
2021/10/26 08:37:56;;;;;;;17.83;15.03;;;13.60;99.90;;;;;;5155343;27;20546;-60
2021/10/26 08:40:25;;;;;;;17.70;15.00;;;13.70;99.90;;;;;;5157922;22;20528;-59
2021/10/26 08:42:56;;;;;;;20.77;16.63;;;13.80;99.90;;;;;;5112752;28;20451;-59
2021/10/26 08:45:24;;;;;;;16.80;15.00;;;13.80;99.90;;;;;;5113020;28;20504;-59
2021/10/26 08:47:51;;;;;;;20.97;16.17;;;13.80;99.90;;;;;;5112535;28;20452;-59
2021/10/26 08:50:20;;;;;;;19.83;16.10;;;13.90;99.90;;;;;;5112907;28;20469;-59
2021/10/26 08:52:48;;;;;;;17.33;15.50;;;13.90;99.90;;;;;;5112399;28;20438;-60
2021/10/26 08:55:17;;;;;;;18.00;15.63;;;13.80;99.70;;;;;;5116052;28;20494;-60
2021/10/26 08:57:45;;;;;;;17.27;15.57;;;13.80;99.60;;;;;;5116615;28;20452;-60
2021/10/26 09:00:17;;;;;;;17.90;15.90;;;13.80;99.60;;;;;;5116924;28;20487;-59
2021/10/26 09:02:46;;;;;;;20.23;14.20;;;13.80;99.50;;;;;;5116624;28;20478;-60
2021/10/26 09:05:16;;;;;;;16.10;13.90;;;13.80;99.20;;;;;;5116018;28;20947;-60
2021/10/26 09:07:59;;;;;;;16.63;14.83;;;13.80;98.80;;;;;;5116378;28;20449;-60
2021/10/26 09:10:30;;;;;;;15.97;13.90;;;13.80;98.80;;;;;;5116412;28;20457;-59
2021/10/26 09:18:40;;;;;;;16.13;14.50;;;13.90;98.20;;;;;;5115951;28;20866;-60
2021/10/26 09:21:23;;;;;;;14.77;13.27;;;13.90;97.90;;;;;;5116235;28;20514;-60
2021/10/26 09:23:50;;;;;;;18.80;14.53;;;14.00;97.80;;;;;;5116115;28;20471;-60
2021/10/26 09:26:18;;;;;;;15.53;13.93;;;14.00;97.70;;;;;;5116142;28;20445;-60
2021/10/26 09:28:53;;;;;;;17.57;13.07;;;14.10;97.60;;;;;;5116176;28;20477;-60
2021/10/26 09:31:29;;;;;;;15.13;12.33;;;14.10;97.40;;;;;;5116791;28;20429;-61
2021/10/26 09:34:07;;;;;;;16.50;13.60;;;14.10;97.20;;;;;;5116070;28;20440;-60
2021/10/26 09:36:37;;;;;;;14.73;12.40;;;14.10;97.00;;;;;;5116026;28;20445;-60
2021/10/26 09:39:13;;;;;;;17.53;12.30;;;14.00;96.90;;;;;;5115871;28;20458;-61
2021/10/26 09:42:01;;;;;;;11.97;10.53;;;14.10;97.00;;;;;;5116035;28;20425;-60
2021/10/26 09:44:30;;;;;;;11.53;10.33;;;14.20;96.70;;;;;;5116764;28;20433;-60
2021/10/26 09:47:00;;;;;;;11.23;10.07;;;14.30;96.50;;;;;;5115653;28;20811;-59
2021/10/26 09:49:29;;;;;;;14.33;10.60;;;14.30;96.20;;;;;;5115638;28;20489;-60
2021/10/26 09:52:14;;;;;;;11.53;9.50;;;14.30;95.90;;;;;;5116049;28;20507;-62
2021/10/26 09:54:43;;;;;;;9.30;8.40;;;14.40;95.80;;;;;;5116294;28;20636;-60
2021/10/26 09:57:11;;;;;;;18.67;9.60;;;14.40;95.50;;;;;;5115624;28;20456;-60
2021/10/26 09:59:46;;;;;;;13.87;9.80;;;14.40;95.20;;;;;;5115403;28;20476;-60
2021/10/26 10:02:22;;;;;;;10.90;9.00;;;14.40;95.10;;;;;;5115333;28;20425;-60
2021/10/26 10:04:50;;;;;;;9.57;8.60;;;14.40;94.90;;;;;;5114547;28;20464;-60
2021/10/26 10:07:28;;;;;;;12.20;9.17;;;14.30;94.90;;;;;;5114712;28;20934;-60
2021/10/26 10:09:56;;;;;;;10.17;9.00;;;14.20;94.90;;;;;;5114861;28;21008;-60
2021/10/26 10:12:26;;;;;;;9.43;8.10;;;14.20;94.90;;;;;;5114714;28;20441;-60
2021/10/26 10:14:54;;;;;;;9.63;8.60;;;14.20;95.00;;;;;;5115030;28;20437;-60
2021/10/26 10:17:24;;;;;;;9.77;8.07;;;14.30;94.90;;;;;;5115267;28;20442;-60
2021/10/26 10:19:52;;;;;;;8.57;7.00;;;14.50;94.30;;;;;;5114481;28;20465;-61
2021/10/26 10:22:23;;;;;;;9.60;6.90;;;14.70;93.80;;;;;;5115039;28;20502;-60
2021/10/26 10:24:54;;;;;;;8.90;6.70;;;14.80;93.40;;;;;;5115301;28;20441;-60
2021/10/26 10:27:23;;;;;;;8.57;7.00;;;14.80;93.00;;;;;;5114963;28;20422;-61
2021/10/26 10:29:51;;;;;;;8.33;5.60;;;14.90;92.60;;;;;;5114778;28;20512;-61
2021/10/26 10:32:23;;;;;;;7.37;5.13;;;15.00;92.00;;;;;;5115085;28;20448;-61
2021/10/26 10:34:51;;;;;;;6.80;5.80;;;15.00;91.70;;;;;;5114234;28;20437;-60
2021/10/26 10:37:23;;;;;;;7.10;5.87;;;15.10;91.40;;;;;;5114911;28;20441;-61
2021/10/26 10:39:51;;;;;;;8.47;5.90;;;15.30;91.00;;;;;;5114024;28;20516;-60
2021/10/26 10:42:22;;;;;;;7.60;6.07;;;15.50;90.60;;;;;;5114550;28;20441;-60
2021/10/26 10:44:50;;;;;;;10.93;6.30;;;15.70;90.20;;;;;;5114841;28;20425;-61
2021/10/26 10:47:42;;;;;;;10.10;5.93;;;15.90;89.70;;;;;;5114249;28;20849;-60
2021/10/26 10:50:34;;;;;;;8.50;6.73;;;16.00;88.60;;;;;;5113968;28;20481;-60
2021/10/26 10:53:08;;;;;;;9.00;5.97;;;15.90;87.40;;;;;;5114102;28;20434;-61
2021/10/26 10:55:36;;;;;;;7.63;6.50;;;15.70;87.40;;;;;;5114349;28;20425;-60
2021/10/26 10:58:26;;;;;;;8.90;7.60;;;15.60;87.80;;;;;;5113760;28;20452;-60
2021/10/26 11:00:55;;;;;;;16.73;6.63;;;15.40;88.00;;;;;;5113778;28;20465;-60
2021/10/26 11:03:32;;;;;;;9.83;7.47;;;15.30;88.70;;;;;;5114091;28;20449;-61
2021/10/26 11:06:00;;;;;;;8.40;7.60;;;15.30;89.00;;;;;;5114034;28;20429;-62
2021/10/26 11:08:47;;;;;;;10.30;8.07;;;15.30;88.90;;;;;;5113495;28;20444;-59
2021/10/26 11:11:16;;;;;;;12.77;7.83;;;15.30;89.00;;;;;;5114197;28;20441;-60
2021/10/26 11:13:44;;;;;;;10.03;7.90;;;15.40;88.90;;;;;;5113801;28;20787;-59
2021/10/26 11:16:13;;;;;;;8.77;7.87;;;15.50;88.20;;;;;;5114013;28;20454;-59
2021/10/26 11:18:44;;;;;;;9.63;8.23;;;15.50;87.90;;;;;;5113861;28;20502;-61
2021/10/26 11:21:35;;;;;;;10.07;8.57;;;15.60;87.70;;;;;;5114167;28;20434;-60
2021/10/26 11:24:08;;;;;;;11.83;8.23;;;15.70;87.10;;;;;;5113637;28;20801;-62
2021/10/26 11:26:37;;;;;;;8.50;7.60;;;15.70;86.80;;;;;;5113764;28;20448;-61
2021/10/26 11:29:06;;;;;;;8.87;7.53;;;15.70;86.40;;;;;;5113071;28;20481;-61
2021/10/26 11:31:43;;;;;;;8.60;7.70;;;15.70;86.30;;;;;;5113582;28;20441;-59
2021/10/26 11:34:20;;;;;;;10.73;7.43;;;15.70;86.30;;;;;;5113449;28;20429;-59
2021/10/26 11:36:59;;;;;;;9.40;6.80;;;15.80;85.50;;;;;;5113925;28;20418;-60
2021/10/26 11:39:26;;;;;;;9.43;7.80;;;15.70;84.00;;;;;;5113292;28;20477;-61
2021/10/26 11:41:53;;;;;;;10.60;8.07;;;15.50;84.40;;;;;;5113345;28;20437;-61
2021/10/26 11:44:21;;;;;;;11.40;8.33;;;15.50;83.70;;;;;;5113607;28;20445;-61
2021/10/26 11:46:50;;;;;;;12.33;8.40;;;15.50;83.90;;;;;;5113338;28;20452;-61
2021/10/26 11:49:21;;;;;;;8.50;7.70;;;15.60;84.00;;;;;;5113505;28;20489;-61
2021/10/26 11:51:50;;;;;;;9.57;7.53;;;15.70;83.80;;;;;;5113384;28;20456;-61
2021/10/26 11:54:19;;;;;;;10.67;7.70;;;15.70;83.20;;;;;;5113190;28;20899;-61
2021/10/26 11:56:48;;;;;;;8.30;7.50;;;15.80;83.00;;;;;;5113314;28;20449;-60
2021/10/26 11:59:16;;;;;;;8.70;7.80;;;15.80;82.30;;;;;;5113296;28;20477;-59
2021/10/26 12:01:49;;;;;;;13.10;8.37;;;15.80;81.90;;;;;;5113121;28;20441;-61
2021/10/26 12:04:29;;;;;;;11.77;9.27;;;15.70;82.00;;;;;;5113360;28;20441;-61
2021/10/26 12:06:58;;;;;;;10.10;8.27;;;15.50;82.70;;;;;;5113004;28;20480;-62
2021/10/26 12:09:27;;;;;;;8.43;7.53;;;15.40;83.40;;;;;;5113102;28;20512;-61
2021/10/26 12:11:56;;;;;;;9.13;7.63;;;15.20;83.90;;;;;;5113045;28;20941;-60
2021/10/26 12:14:33;;;;;;;8.17;7.30;;;15.20;84.60;;;;;;5113118;28;20453;-61
2021/10/26 12:17:08;;;;;;;9.00;6.03;;;15.10;84.80;;;;;;5113120;28;20433;-60
2021/10/26 12:19:39;;;;;;;7.07;5.60;;;15.10;84.50;;;;;;5112739;28;20499;-62
2021/10/26 12:22:06;;;;;;;8.67;5.83;;;15.10;83.90;;;;;;5112935;28;20933;-61
2021/10/26 12:24:35;;;;;;;7.50;5.93;;;15.20;83.10;;;;;;5113051;28;20452;-61
2021/10/26 12:27:06;;;;;;;9.03;6.40;;;15.20;82.40;;;;;;5112919;28;20449;-61
2021/10/26 12:29:34;;;;;;;10.90;6.90;;;15.40;82.00;;;;;;5114943;28;20967;-61
2021/10/26 12:32:03;;;;;;;7.40;6.63;;;15.50;81.20;;;;;;5117250;28;20437;-60
2021/10/26 12:34:35;;;;;;;8.93;7.57;;;15.60;81.10;;;;;;5117126;28;20693;-60
2021/10/26 12:37:31;;;;;;;7.93;7.13;;;15.80;80.50;;;;;;5117057;28;20434;-61
2021/10/26 12:39:59;;;;;;;8.87;7.00;;;16.10;79.10;;;;;;5116512;28;20465;-61
2021/10/26 12:42:38;;;;;;;8.90;7.00;;;16.10;78.00;;;;;;5117193;28;20444;-61
2021/10/26 12:45:08;;;;;;;11.30;7.70;;;16.10;77.60;;;;;;5117083;28;20486;-60
2021/10/26 12:48:01;;;;;;;10.53;8.53;;;16.10;77.40;;;;;;5116759;28;20831;-60